sensor_id;sensor_type;location;lat;lon;timestamp;P1;durP1;ratioP1;P2;durP2;ratioP2
18789;SDS011;9523;42.650;23.386;2023-02-27T00:00:10;21.43;;;8.13;;
18789;SDS011;9523;42.650;23.386;2023-02-27T00:02:40;26.27;;;8.67;;
18789;SDS011;9523;42.650;23.386;2023-02-27T00:05:07;21.20;;;8.03;;
18789;SDS011;9523;42.650;23.386;2023-02-27T00:07:36;19.97;;;8.63;;
18789;SDS011;9523;42.650;23.386;2023-02-27T00:10:03;22.80;;;9.03;;
18789;SDS011;9523;42.650;23.386;2023-02-27T00:12:32;21.67;;;8.50;;
18789;SDS011;9523;42.650;23.386;2023-02-27T00:15:02;24.40;;;9.20;;
18789;SDS011;9523;42.650;23.386;2023-02-27T00:17:30;25.60;;;8.23;;
18789;SDS011;9523;42.650;23.386;2023-02-27T00:19:57;20.47;;;7.83;;
18789;SDS011;9523;42.650;23.386;2023-02-27T00:22:23;22.30;;;8.43;;
18789;SDS011;9523;42.650;23.386;2023-02-27T00:24:51;26.53;;;8.27;;
18789;SDS011;9523;42.650;23.386;2023-02-27T00:27:18;22.37;;;9.23;;
18789;SDS011;9523;42.650;23.386;2023-02-27T00:29:45;26.83;;;9.13;;
18789;SDS011;9523;42.650;23.386;2023-02-27T00:32:12;23.77;;;8.97;;
18789;SDS011;9523;42.650;23.386;2023-02-27T00:34:39;23.70;;;8.60;;
18789;SDS011;9523;42.650;23.386;2023-02-27T00:37:06;24.97;;;8.83;;
18789;SDS011;9523;42.650;23.386;2023-02-27T00:39:32;23.33;;;8.40;;
18789;SDS011;9523;42.650;23.386;2023-02-27T00:42:01;25.63;;;8.60;;
18789;SDS011;9523;42.650;23.386;2023-02-27T00:44:27;34.13;;;13.13;;
18789;SDS011;9523;42.650;23.386;2023-02-27T00:46:54;23.33;;;9.30;;
18789;SDS011;9523;42.650;23.386;2023-02-27T00:49:21;20.90;;;7.77;;
18789;SDS011;9523;42.650;23.386;2023-02-27T00:51:49;19.33;;;8.77;;
18789;SDS011;9523;42.650;23.386;2023-02-27T00:54:16;23.97;;;8.80;;
18789;SDS011;9523;42.650;23.386;2023-02-27T00:56:43;26.03;;;7.73;;
18789;SDS011;9523;42.650;23.386;2023-02-27T00:59:11;25.70;;;8.10;;
18789;SDS011;9523;42.650;23.386;2023-02-27T01:01:38;25.00;;;7.57;;
18789;SDS011;9523;42.650;23.386;2023-02-27T01:04:05;21.83;;;8.53;;
18789;SDS011;9523;42.650;23.386;2023-02-27T01:06:32;23.30;;;8.50;;
18789;SDS011;9523;42.650;23.386;2023-02-27T01:08:59;21.83;;;7.97;;
18789;SDS011;9523;42.650;23.386;2023-02-27T01:11:26;25.90;;;8.17;;
18789;SDS011;9523;42.650;23.386;2023-02-27T01:13:53;23.80;;;8.43;;
18789;SDS011;9523;42.650;23.386;2023-02-27T01:16:21;17.97;;;8.70;;
18789;SDS011;9523;42.650;23.386;2023-02-27T01:18:48;24.53;;;8.37;;
18789;SDS011;9523;42.650;23.386;2023-02-27T01:21:15;21.57;;;8.73;;
18789;SDS011;9523;42.650;23.386;2023-02-27T01:23:42;28.37;;;9.83;;
18789;SDS011;9523;42.650;23.386;2023-02-27T01:26:09;23.80;;;8.07;;
18789;SDS011;9523;42.650;23.386;2023-02-27T01:28:36;24.70;;;8.47;;
18789;SDS011;9523;42.650;23.386;2023-02-27T01:31:03;19.07;;;9.17;;
18789;SDS011;9523;42.650;23.386;2023-02-27T01:33:32;26.67;;;9.07;;
18789;SDS011;9523;42.650;23.386;2023-02-27T01:35:59;20.60;;;8.87;;
18789;SDS011;9523;42.650;23.386;2023-02-27T01:38:25;25.80;;;8.37;;
18789;SDS011;9523;42.650;23.386;2023-02-27T01:40:52;30.23;;;10.00;;
18789;SDS011;9523;42.650;23.386;2023-02-27T01:43:20;21.03;;;8.43;;
18789;SDS011;9523;42.650;23.386;2023-02-27T01:45:48;25.93;;;9.03;;
18789;SDS011;9523;42.650;23.386;2023-02-27T01:48:16;29.63;;;8.70;;
18789;SDS011;9523;42.650;23.386;2023-02-27T01:50:49;29.57;;;8.33;;
18789;SDS011;9523;42.650;23.386;2023-02-27T01:53:18;26.13;;;9.50;;
18789;SDS011;9523;42.650;23.386;2023-02-27T01:55:49;31.63;;;9.20;;
18789;SDS011;9523;42.650;23.386;2023-02-27T01:58:19;27.63;;;8.80;;
18789;SDS011;9523;42.650;23.386;2023-02-27T02:00:47;22.23;;;9.03;;
18789;SDS011;9523;42.650;23.386;2023-02-27T02:03:17;27.13;;;10.07;;
18789;SDS011;9523;42.650;23.386;2023-02-27T02:05:50;26.97;;;9.23;;
18789;SDS011;9523;42.650;23.386;2023-02-27T02:08:20;23.43;;;8.93;;
18789;SDS011;9523;42.650;23.386;2023-02-27T02:10:49;25.10;;;9.50;;
18789;SDS011;9523;42.650;23.386;2023-02-27T02:13:19;24.47;;;9.17;;
18789;SDS011;9523;42.650;23.386;2023-02-27T02:15:49;28.87;;;9.80;;
18789;SDS011;9523;42.650;23.386;2023-02-27T02:18:29;32.80;;;9.73;;
18789;SDS011;9523;42.650;23.386;2023-02-27T02:21:19;24.90;;;9.87;;
18789;SDS011;9523;42.650;23.386;2023-02-27T02:27:25;8.50;;;4.30;;
18789;SDS011;9523;42.650;23.386;2023-02-27T02:30:24;15.63;;;5.17;;
18789;SDS011;9523;42.650;23.386;2023-02-27T02:39:27;21.93;;;6.33;;
18789;SDS011;9523;42.650;23.386;2023-02-27T02:42:21;13.50;;;5.57;;
18789;SDS011;9523;42.650;23.386;2023-02-27T02:44:55;17.20;;;6.30;;
18789;SDS011;9523;42.650;23.386;2023-02-27T02:47:30;15.93;;;5.03;;
18789;SDS011;9523;42.650;23.386;2023-02-27T02:50:07;18.67;;;5.47;;
18789;SDS011;9523;42.650;23.386;2023-02-27T02:52:41;17.07;;;5.60;;
18789;SDS011;9523;42.650;23.386;2023-02-27T02:55:17;15.33;;;4.00;;
18789;SDS011;9523;42.650;23.386;2023-02-27T02:57:51;13.33;;;3.07;;
18789;SDS011;9523;42.650;23.386;2023-02-27T03:00:26;3.30;;;2.00;;
18789;SDS011;9523;42.650;23.386;2023-02-27T03:02:59;3.57;;;1.40;;
18789;SDS011;9523;42.650;23.386;2023-02-27T03:05:34;2.83;;;0.80;;
18789;SDS011;9523;42.650;23.386;2023-02-27T03:08:07;2.27;;;0.80;;
18789;SDS011;9523;42.650;23.386;2023-02-27T03:10:44;3.30;;;0.70;;
18789;SDS011;9523;42.650;23.386;2023-02-27T03:13:16;1.50;;;0.60;;
18789;SDS011;9523;42.650;23.386;2023-02-27T03:15:50;1.80;;;0.60;;
18789;SDS011;9523;42.650;23.386;2023-02-27T03:18:24;1.10;;;0.80;;
18789;SDS011;9523;42.650;23.386;2023-02-27T03:20:56;2.90;;;0.80;;
18789;SDS011;9523;42.650;23.386;2023-02-27T03:23:28;2.93;;;0.70;;
18789;SDS011;9523;42.650;23.386;2023-02-27T03:26:04;1.87;;;0.80;;
18789;SDS011;9523;42.650;23.386;2023-02-27T03:28:34;3.67;;;1.90;;
18789;SDS011;9523;42.650;23.386;2023-02-27T03:31:06;6.13;;;3.20;;
18789;SDS011;9523;42.650;23.386;2023-02-27T03:33:39;6.53;;;3.47;;
18789;SDS011;9523;42.650;23.386;2023-02-27T03:36:14;5.63;;;3.13;;
18789;SDS011;9523;42.650;23.386;2023-02-27T03:38:50;7.93;;;3.20;;
18789;SDS011;9523;42.650;23.386;2023-02-27T03:41:24;6.50;;;3.47;;
18789;SDS011;9523;42.650;23.386;2023-02-27T03:43:57;5.13;;;3.00;;
18789;SDS011;9523;42.650;23.386;2023-02-27T03:46:33;5.23;;;3.60;;
18789;SDS011;9523;42.650;23.386;2023-02-27T03:49:01;7.23;;;3.90;;
18789;SDS011;9523;42.650;23.386;2023-02-27T03:51:28;6.93;;;3.30;;
18789;SDS011;9523;42.650;23.386;2023-02-27T03:53:56;5.30;;;3.13;;
18789;SDS011;9523;42.650;23.386;2023-02-27T03:56:30;6.30;;;3.93;;
18789;SDS011;9523;42.650;23.386;2023-02-27T03:59:03;5.97;;;3.47;;
18789;SDS011;9523;42.650;23.386;2023-02-27T04:01:31;8.17;;;3.90;;
18789;SDS011;9523;42.650;23.386;2023-02-27T04:03:59;8.90;;;4.03;;
18789;SDS011;9523;42.650;23.386;2023-02-27T04:06:31;7.00;;;3.50;;
18789;SDS011;9523;42.650;23.386;2023-02-27T04:09:20;6.40;;;3.30;;
18789;SDS011;9523;42.650;23.386;2023-02-27T04:12:05;5.40;;;3.00;;
18789;SDS011;9523;42.650;23.386;2023-02-27T04:14:47;5.93;;;3.30;;
18789;SDS011;9523;42.650;23.386;2023-02-27T04:17:24;6.33;;;3.33;;
18789;SDS011;9523;42.650;23.386;2023-02-27T04:20:03;6.27;;;3.40;;
18789;SDS011;9523;42.650;23.386;2023-02-27T04:22:46;6.17;;;3.53;;
18789;SDS011;9523;42.650;23.386;2023-02-27T04:25:26;4.97;;;3.27;;
18789;SDS011;9523;42.650;23.386;2023-02-27T04:28:15;8.30;;;3.13;;
18789;SDS011;9523;42.650;23.386;2023-02-27T04:30:45;5.60;;;3.63;;
18789;SDS011;9523;42.650;23.386;2023-02-27T04:33:23;6.53;;;3.90;;
18789;SDS011;9523;42.650;23.386;2023-02-27T04:35:55;5.20;;;3.10;;
18789;SDS011;9523;42.650;23.386;2023-02-27T04:38:28;5.60;;;3.10;;
18789;SDS011;9523;42.650;23.386;2023-02-27T04:41:01;7.30;;;3.70;;
18789;SDS011;9523;42.650;23.386;2023-02-27T04:43:33;6.07;;;3.83;;
18789;SDS011;9523;42.650;23.386;2023-02-27T04:46:04;7.00;;;3.80;;
18789;SDS011;9523;42.650;23.386;2023-02-27T04:48:34;6.57;;;4.10;;
18789;SDS011;9523;42.650;23.386;2023-02-27T04:51:08;6.03;;;3.47;;
18789;SDS011;9523;42.650;23.386;2023-02-27T04:53:40;8.13;;;4.03;;
18789;SDS011;9523;42.650;23.386;2023-02-27T04:56:12;7.03;;;3.80;;
18789;SDS011;9523;42.650;23.386;2023-02-27T04:58:45;6.60;;;3.77;;
18789;SDS011;9523;42.650;23.386;2023-02-27T05:01:17;5.37;;;3.50;;
18789;SDS011;9523;42.650;23.386;2023-02-27T05:03:49;6.27;;;3.43;;
18789;SDS011;9523;42.650;23.386;2023-02-27T05:06:20;5.77;;;3.20;;
18789;SDS011;9523;42.650;23.386;2023-02-27T05:08:54;6.13;;;2.90;;
18789;SDS011;9523;42.650;23.386;2023-02-27T05:11:27;4.47;;;2.83;;
18789;SDS011;9523;42.650;23.386;2023-02-27T05:14:00;5.77;;;2.83;;
18789;SDS011;9523;42.650;23.386;2023-02-27T05:16:34;8.40;;;3.60;;
18789;SDS011;9523;42.650;23.386;2023-02-27T05:19:04;5.07;;;2.77;;
18789;SDS011;9523;42.650;23.386;2023-02-27T05:21:33;6.83;;;3.27;;
18789;SDS011;9523;42.650;23.386;2023-02-27T05:24:10;4.17;;;3.00;;
18789;SDS011;9523;42.650;23.386;2023-02-27T05:26:46;4.77;;;3.00;;
18789;SDS011;9523;42.650;23.386;2023-02-27T05:29:29;5.37;;;3.10;;
18789;SDS011;9523;42.650;23.386;2023-02-27T05:32:01;3.97;;;2.90;;
18789;SDS011;9523;42.650;23.386;2023-02-27T05:34:33;5.03;;;3.20;;
18789;SDS011;9523;42.650;23.386;2023-02-27T05:37:08;5.37;;;3.30;;
18789;SDS011;9523;42.650;23.386;2023-02-27T05:39:39;5.93;;;3.63;;
18789;SDS011;9523;42.650;23.386;2023-02-27T05:42:10;5.67;;;3.57;;
18789;SDS011;9523;42.650;23.386;2023-02-27T05:44:43;7.27;;;3.57;;
18789;SDS011;9523;42.650;23.386;2023-02-27T05:47:16;6.07;;;3.47;;
18789;SDS011;9523;42.650;23.386;2023-02-27T05:49:48;5.27;;;3.40;;
18789;SDS011;9523;42.650;23.386;2023-02-27T05:52:19;8.63;;;3.97;;
18789;SDS011;9523;42.650;23.386;2023-02-27T05:54:50;5.50;;;3.60;;
18789;SDS011;9523;42.650;23.386;2023-02-27T05:57:26;5.00;;;3.30;;
18789;SDS011;9523;42.650;23.386;2023-02-27T06:00:00;5.63;;;4.00;;
18789;SDS011;9523;42.650;23.386;2023-02-27T06:02:31;8.13;;;4.27;;
18789;SDS011;9523;42.650;23.386;2023-02-27T06:04:59;7.57;;;4.47;;
18789;SDS011;9523;42.650;23.386;2023-02-27T06:07:29;10.50;;;5.00;;
18789;SDS011;9523;42.650;23.386;2023-02-27T06:10:00;7.60;;;4.30;;
18789;SDS011;9523;42.650;23.386;2023-02-27T06:12:27;6.33;;;4.40;;
18789;SDS011;9523;42.650;23.386;2023-02-27T06:14:54;8.43;;;4.93;;
18789;SDS011;9523;42.650;23.386;2023-02-27T06:17:22;8.03;;;4.40;;
18789;SDS011;9523;42.650;23.386;2023-02-27T06:19:49;6.30;;;4.27;;
18789;SDS011;9523;42.650;23.386;2023-02-27T06:22:16;10.50;;;4.47;;
18789;SDS011;9523;42.650;23.386;2023-02-27T06:24:43;7.73;;;4.70;;
18789;SDS011;9523;42.650;23.386;2023-02-27T06:27:10;6.43;;;3.37;;
18789;SDS011;9523;42.650;23.386;2023-02-27T06:29:37;4.20;;;3.17;;
18789;SDS011;9523;42.650;23.386;2023-02-27T06:32:04;4.20;;;3.30;;
18789;SDS011;9523;42.650;23.386;2023-02-27T06:34:32;5.40;;;3.00;;
18789;SDS011;9523;42.650;23.386;2023-02-27T06:36:59;6.93;;;3.50;;
18789;SDS011;9523;42.650;23.386;2023-02-27T06:39:26;6.33;;;3.53;;
18789;SDS011;9523;42.650;23.386;2023-02-27T06:41:53;5.63;;;3.97;;
18789;SDS011;9523;42.650;23.386;2023-02-27T06:44:20;7.63;;;5.07;;
18789;SDS011;9523;42.650;23.386;2023-02-27T06:46:47;5.83;;;4.40;;
18789;SDS011;9523;42.650;23.386;2023-02-27T06:49:14;7.67;;;4.20;;
18789;SDS011;9523;42.650;23.386;2023-02-27T06:51:42;9.53;;;4.37;;
18789;SDS011;9523;42.650;23.386;2023-02-27T06:54:09;6.33;;;4.13;;
18789;SDS011;9523;42.650;23.386;2023-02-27T06:56:36;5.43;;;3.70;;
18789;SDS011;9523;42.650;23.386;2023-02-27T06:59:03;10.97;;;4.57;;
18789;SDS011;9523;42.650;23.386;2023-02-27T07:01:30;5.90;;;3.83;;
18789;SDS011;9523;42.650;23.386;2023-02-27T07:03:57;6.90;;;4.13;;
18789;SDS011;9523;42.650;23.386;2023-02-27T07:06:25;7.33;;;3.73;;
18789;SDS011;9523;42.650;23.386;2023-02-27T07:08:55;8.07;;;3.67;;
18789;SDS011;9523;42.650;23.386;2023-02-27T07:11:21;5.87;;;3.70;;
18789;SDS011;9523;42.650;23.386;2023-02-27T07:13:48;5.00;;;3.17;;
18789;SDS011;9523;42.650;23.386;2023-02-27T07:16:15;4.10;;;3.03;;
18789;SDS011;9523;42.650;23.386;2023-02-27T07:18:42;7.90;;;3.63;;
18789;SDS011;9523;42.650;23.386;2023-02-27T07:21:09;5.50;;;3.60;;
18789;SDS011;9523;42.650;23.386;2023-02-27T07:23:36;6.17;;;3.37;;
18789;SDS011;9523;42.650;23.386;2023-02-27T07:26:05;5.10;;;3.63;;
18789;SDS011;9523;42.650;23.386;2023-02-27T07:28:31;4.33;;;3.47;;
18789;SDS011;9523;42.650;23.386;2023-02-27T07:31:00;6.63;;;3.77;;
18789;SDS011;9523;42.650;23.386;2023-02-27T07:33:27;5.60;;;3.70;;
18789;SDS011;9523;42.650;23.386;2023-02-27T07:35:53;8.00;;;3.57;;
18789;SDS011;9523;42.650;23.386;2023-02-27T07:38:21;5.07;;;3.40;;
18789;SDS011;9523;42.650;23.386;2023-02-27T07:40:48;7.20;;;3.30;;
18789;SDS011;9523;42.650;23.386;2023-02-27T07:43:16;6.07;;;4.10;;
18789;SDS011;9523;42.650;23.386;2023-02-27T07:45:43;6.47;;;4.20;;
18789;SDS011;9523;42.650;23.386;2023-02-27T07:48:10;4.87;;;3.80;;
18789;SDS011;9523;42.650;23.386;2023-02-27T07:50:38;8.30;;;4.00;;
18789;SDS011;9523;42.650;23.386;2023-02-27T07:53:04;6.03;;;3.90;;
18789;SDS011;9523;42.650;23.386;2023-02-27T07:55:32;5.00;;;3.63;;
18789;SDS011;9523;42.650;23.386;2023-02-27T07:57:59;7.53;;;3.93;;
18789;SDS011;9523;42.650;23.386;2023-02-27T08:00:27;5.10;;;3.63;;
18789;SDS011;9523;42.650;23.386;2023-02-27T08:02:54;6.73;;;3.80;;
18789;SDS011;9523;42.650;23.386;2023-02-27T08:05:21;7.77;;;4.03;;
18789;SDS011;9523;42.650;23.386;2023-02-27T08:07:48;5.23;;;3.33;;
18789;SDS011;9523;42.650;23.386;2023-02-27T08:10:15;7.27;;;3.83;;
18789;SDS011;9523;42.650;23.386;2023-02-27T08:12:45;5.67;;;3.67;;
18789;SDS011;9523;42.650;23.386;2023-02-27T08:15:12;7.07;;;4.47;;
18789;SDS011;9523;42.650;23.386;2023-02-27T08:17:41;7.60;;;4.30;;
18789;SDS011;9523;42.650;23.386;2023-02-27T08:20:08;7.63;;;3.83;;
18789;SDS011;9523;42.650;23.386;2023-02-27T08:22:37;7.33;;;4.33;;
18789;SDS011;9523;42.650;23.386;2023-02-27T08:25:07;8.10;;;4.87;;
18789;SDS011;9523;42.650;23.386;2023-02-27T08:27:35;6.40;;;4.30;;
18789;SDS011;9523;42.650;23.386;2023-02-27T08:30:06;6.47;;;4.23;;
18789;SDS011;9523;42.650;23.386;2023-02-27T08:32:34;8.23;;;5.07;;
18789;SDS011;9523;42.650;23.386;2023-02-27T08:35:04;10.50;;;4.30;;
18789;SDS011;9523;42.650;23.386;2023-02-27T08:37:31;8.47;;;4.50;;
18789;SDS011;9523;42.650;23.386;2023-02-27T08:39:58;9.47;;;4.07;;
18789;SDS011;9523;42.650;23.386;2023-02-27T08:42:26;5.13;;;3.97;;
18789;SDS011;9523;42.650;23.386;2023-02-27T08:44:53;9.47;;;4.37;;
18789;SDS011;9523;42.650;23.386;2023-02-27T08:47:20;7.60;;;5.03;;
18789;SDS011;9523;42.650;23.386;2023-02-27T08:49:47;11.60;;;4.30;;
18789;SDS011;9523;42.650;23.386;2023-02-27T08:52:15;7.07;;;4.20;;
18789;SDS011;9523;42.650;23.386;2023-02-27T08:54:45;5.57;;;3.93;;
18789;SDS011;9523;42.650;23.386;2023-02-27T08:57:12;8.63;;;3.90;;
18789;SDS011;9523;42.650;23.386;2023-02-27T08:59:39;10.47;;;5.03;;
18789;SDS011;9523;42.650;23.386;2023-02-27T09:02:06;6.87;;;4.70;;
18789;SDS011;9523;42.650;23.386;2023-02-27T09:04:33;5.80;;;3.83;;
18789;SDS011;9523;42.650;23.386;2023-02-27T09:07:00;8.60;;;5.30;;
18789;SDS011;9523;42.650;23.386;2023-02-27T09:09:28;7.10;;;3.77;;
18789;SDS011;9523;42.650;23.386;2023-02-27T09:11:58;7.80;;;4.13;;
18789;SDS011;9523;42.650;23.386;2023-02-27T09:14:25;6.77;;;4.10;;
18789;SDS011;9523;42.650;23.386;2023-02-27T09:16:52;6.23;;;4.20;;
18789;SDS011;9523;42.650;23.386;2023-02-27T09:19:19;9.40;;;4.17;;
18789;SDS011;9523;42.650;23.386;2023-02-27T09:21:46;7.60;;;4.70;;
18789;SDS011;9523;42.650;23.386;2023-02-27T09:24:12;9.57;;;4.30;;
18789;SDS011;9523;42.650;23.386;2023-02-27T09:26:41;7.70;;;4.47;;
18789;SDS011;9523;42.650;23.386;2023-02-27T09:29:10;9.90;;;4.47;;
18789;SDS011;9523;42.650;23.386;2023-02-27T09:31:37;8.97;;;3.30;;
18789;SDS011;9523;42.650;23.386;2023-02-27T09:34:04;6.40;;;4.53;;
18789;SDS011;9523;42.650;23.386;2023-02-27T09:36:31;5.90;;;3.93;;
18789;SDS011;9523;42.650;23.386;2023-02-27T09:38:59;8.77;;;3.80;;
18789;SDS011;9523;42.650;23.386;2023-02-27T09:41:38;9.93;;;4.37;;
18789;SDS011;9523;42.650;23.386;2023-02-27T09:44:15;13.27;;;6.00;;
18789;SDS011;9523;42.650;23.386;2023-02-27T09:46:49;7.50;;;4.57;;
18789;SDS011;9523;42.650;23.386;2023-02-27T09:49:18;12.03;;;7.23;;
18789;SDS011;9523;42.650;23.386;2023-02-27T09:51:50;7.57;;;4.73;;
18789;SDS011;9523;42.650;23.386;2023-02-27T09:54:18;9.90;;;5.30;;
18789;SDS011;9523;42.650;23.386;2023-02-27T09:56:48;8.17;;;5.20;;
18789;SDS011;9523;42.650;23.386;2023-02-27T09:59:19;8.47;;;4.70;;
18789;SDS011;9523;42.650;23.386;2023-02-27T10:02:00;6.30;;;4.20;;
18789;SDS011;9523;42.650;23.386;2023-02-27T10:04:37;7.50;;;5.20;;
18789;SDS011;9523;42.650;23.386;2023-02-27T10:07:11;7.73;;;4.80;;
18789;SDS011;9523;42.650;23.386;2023-02-27T10:09:50;10.93;;;5.50;;
18789;SDS011;9523;42.650;23.386;2023-02-27T10:15:31;15.63;;;8.23;;
18789;SDS011;9523;42.650;23.386;2023-02-27T10:18:00;14.63;;;7.83;;
18789;SDS011;9523;42.650;23.386;2023-02-27T10:20:32;14.93;;;8.57;;
18789;SDS011;9523;42.650;23.386;2023-02-27T10:23:04;15.07;;;6.93;;
18789;SDS011;9523;42.650;23.386;2023-02-27T10:25:38;10.77;;;5.10;;
18789;SDS011;9523;42.650;23.386;2023-02-27T10:28:12;11.00;;;6.00;;
18789;SDS011;9523;42.650;23.386;2023-02-27T10:30:40;12.77;;;6.80;;
18789;SDS011;9523;42.650;23.386;2023-02-27T10:33:11;10.67;;;6.03;;
18789;SDS011;9523;42.650;23.386;2023-02-27T10:35:44;12.53;;;6.70;;
18789;SDS011;9523;42.650;23.386;2023-02-27T10:38:13;13.90;;;6.27;;
18789;SDS011;9523;42.650;23.386;2023-02-27T10:40:43;10.20;;;5.50;;
18789;SDS011;9523;42.650;23.386;2023-02-27T10:43:13;11.23;;;6.20;;
18789;SDS011;9523;42.650;23.386;2023-02-27T10:45:43;11.80;;;7.77;;
18789;SDS011;9523;42.650;23.386;2023-02-27T10:48:10;13.60;;;6.77;;
18789;SDS011;9523;42.650;23.386;2023-02-27T10:50:39;12.20;;;5.27;;
18789;SDS011;9523;42.650;23.386;2023-02-27T10:53:15;10.67;;;6.87;;
18789;SDS011;9523;42.650;23.386;2023-02-27T10:55:44;10.13;;;6.00;;
18789;SDS011;9523;42.650;23.386;2023-02-27T10:58:22;13.03;;;8.13;;
18789;SDS011;9523;42.650;23.386;2023-02-27T11:00:53;12.73;;;5.97;;
18789;SDS011;9523;42.650;23.386;2023-02-27T11:03:25;9.67;;;5.13;;
18789;SDS011;9523;42.650;23.386;2023-02-27T11:05:55;11.30;;;6.60;;
18789;SDS011;9523;42.650;23.386;2023-02-27T11:08:24;13.50;;;4.67;;
18789;SDS011;9523;42.650;23.386;2023-02-27T11:10:54;5.80;;;4.53;;
18789;SDS011;9523;42.650;23.386;2023-02-27T11:13:25;8.40;;;4.80;;
18789;SDS011;9523;42.650;23.386;2023-02-27T11:16:05;7.70;;;5.20;;
18789;SDS011;9523;42.650;23.386;2023-02-27T11:18:35;9.03;;;5.20;;
18789;SDS011;9523;42.650;23.386;2023-02-27T11:21:14;10.13;;;5.20;;
18789;SDS011;9523;42.650;23.386;2023-02-27T11:23:48;8.73;;;5.07;;
18789;SDS011;9523;42.650;23.386;2023-02-27T11:26:18;9.07;;;4.97;;
18789;SDS011;9523;42.650;23.386;2023-02-27T11:29:04;9.07;;;5.17;;
18789;SDS011;9523;42.650;23.386;2023-02-27T11:31:39;7.07;;;4.70;;
18789;SDS011;9523;42.650;23.386;2023-02-27T11:34:15;8.33;;;5.10;;
18789;SDS011;9523;42.650;23.386;2023-02-27T11:36:55;8.40;;;5.40;;
18789;SDS011;9523;42.650;23.386;2023-02-27T11:39:27;24.47;;;13.97;;
18789;SDS011;9523;42.650;23.386;2023-02-27T11:41:57;11.67;;;6.50;;
18789;SDS011;9523;42.650;23.386;2023-02-27T11:44:32;34.45;;;18.95;;
18789;SDS011;9523;42.650;23.386;2023-02-27T11:47:10;19.55;;;12.15;;
18789;SDS011;9523;42.650;23.386;2023-02-27T11:49:42;12.27;;;6.43;;
18789;SDS011;9523;42.650;23.386;2023-02-27T11:52:26;6.93;;;4.80;;
18789;SDS011;9523;42.650;23.386;2023-02-27T11:55:03;8.20;;;4.50;;
18789;SDS011;9523;42.650;23.386;2023-02-27T11:57:36;10.00;;;4.93;;
18789;SDS011;9523;42.650;23.386;2023-02-27T12:00:13;9.80;;;6.20;;
18789;SDS011;9523;42.650;23.386;2023-02-27T12:02:44;11.13;;;6.55;;
18789;SDS011;9523;42.650;23.386;2023-02-27T12:05:19;10.88;;;6.10;;
18789;SDS011;9523;42.650;23.386;2023-02-27T12:07:50;12.82;;;6.65;;
18789;SDS011;9523;42.650;23.386;2023-02-27T12:10:20;10.13;;;6.68;;
18789;SDS011;9523;42.650;23.386;2023-02-27T12:12:51;10.17;;;6.60;;
18789;SDS011;9523;42.650;23.386;2023-02-27T12:15:24;13.65;;;6.40;;
18789;SDS011;9523;42.650;23.386;2023-02-27T12:18:02;10.23;;;6.22;;
18789;SDS011;9523;42.650;23.386;2023-02-27T12:20:34;8.02;;;5.95;;
18789;SDS011;9523;42.650;23.386;2023-02-27T12:23:09;11.07;;;6.40;;
18789;SDS011;9523;42.650;23.386;2023-02-27T12:25:43;10.73;;;6.05;;
18789;SDS011;9523;42.650;23.386;2023-02-27T12:34:03;11.50;;;6.50;;
18789;SDS011;9523;42.650;23.386;2023-02-27T12:36:38;10.90;;;6.20;;
18789;SDS011;9523;42.650;23.386;2023-02-27T12:39:07;11.60;;;6.53;;
18789;SDS011;9523;42.650;23.386;2023-02-27T12:41:46;13.10;;;6.27;;
18789;SDS011;9523;42.650;23.386;2023-02-27T12:44:34;12.60;;;6.20;;
18789;SDS011;9523;42.650;23.386;2023-02-27T12:47:16;9.30;;;5.67;;
18789;SDS011;9523;42.650;23.386;2023-02-27T12:49:55;12.33;;;5.83;;
18789;SDS011;9523;42.650;23.386;2023-02-27T12:52:29;11.17;;;6.00;;
18789;SDS011;9523;42.650;23.386;2023-02-27T12:55:05;8.70;;;5.90;;
18789;SDS011;9523;42.650;23.386;2023-02-27T12:57:43;11.00;;;5.97;;
18789;SDS011;9523;42.650;23.386;2023-02-27T13:00:25;14.57;;;5.07;;
18789;SDS011;9523;42.650;23.386;2023-02-27T13:03:00;13.93;;;5.33;;
18789;SDS011;9523;42.650;23.386;2023-02-27T13:05:33;11.23;;;5.53;;
18789;SDS011;9523;42.650;23.386;2023-02-27T13:08:10;7.70;;;5.27;;
18789;SDS011;9523;42.650;23.386;2023-02-27T13:10:47;15.77;;;5.50;;
18789;SDS011;9523;42.650;23.386;2023-02-27T13:13:18;15.97;;;5.53;;
18789;SDS011;9523;42.650;23.386;2023-02-27T13:15:52;7.93;;;5.43;;
18789;SDS011;9523;42.650;23.386;2023-02-27T13:18:29;12.20;;;6.17;;
18789;SDS011;9523;42.650;23.386;2023-02-27T13:21:04;12.00;;;5.90;;
18789;SDS011;9523;42.650;23.386;2023-02-27T13:23:39;10.13;;;5.83;;
18789;SDS011;9523;42.650;23.386;2023-02-27T13:26:15;14.90;;;6.30;;
18789;SDS011;9523;42.650;23.386;2023-02-27T13:28:48;14.70;;;5.73;;
18789;SDS011;9523;42.650;23.386;2023-02-27T13:31:18;16.53;;;6.53;;
18789;SDS011;9523;42.650;23.386;2023-02-27T13:33:58;21.10;;;6.37;;
18789;SDS011;9523;42.650;23.386;2023-02-27T13:36:30;13.67;;;5.50;;
18789;SDS011;9523;42.650;23.386;2023-02-27T13:39:01;14.37;;;5.33;;
18789;SDS011;9523;42.650;23.386;2023-02-27T13:41:37;12.03;;;5.00;;
18789;SDS011;9523;42.650;23.386;2023-02-27T13:53:12;12.30;;;6.20;;
18789;SDS011;9523;42.650;23.386;2023-02-27T13:55:45;9.60;;;6.10;;
18789;SDS011;9523;42.650;23.386;2023-02-27T13:58:16;12.40;;;5.97;;
18789;SDS011;9523;42.650;23.386;2023-02-27T14:00:55;8.37;;;6.43;;
18789;SDS011;9523;42.650;23.386;2023-02-27T14:03:27;11.23;;;6.67;;
18789;SDS011;9523;42.650;23.386;2023-02-27T14:05:57;26.30;;;15.87;;
18789;SDS011;9523;42.650;23.386;2023-02-27T14:08:30;22.60;;;10.67;;
18789;SDS011;9523;42.650;23.386;2023-02-27T14:11:09;18.73;;;12.17;;
18789;SDS011;9523;42.650;23.386;2023-02-27T14:14:01;12.20;;;7.20;;
18789;SDS011;9523;42.650;23.386;2023-02-27T14:19:26;10.67;;;7.40;;
18789;SDS011;9523;42.650;23.386;2023-02-27T14:25:19;11.87;;;5.77;;
18789;SDS011;9523;42.650;23.386;2023-02-27T14:27:51;9.60;;;5.93;;
18789;SDS011;9523;42.650;23.386;2023-02-27T14:30:23;9.73;;;6.40;;
18789;SDS011;9523;42.650;23.386;2023-02-27T14:32:54;10.40;;;6.57;;
18789;SDS011;9523;42.650;23.386;2023-02-27T14:35:23;12.70;;;6.03;;
18789;SDS011;9523;42.650;23.386;2023-02-27T14:37:51;9.77;;;5.93;;
18789;SDS011;9523;42.650;23.386;2023-02-27T14:40:21;9.30;;;6.27;;
18789;SDS011;9523;42.650;23.386;2023-02-27T14:42:54;10.00;;;6.67;;
18789;SDS011;9523;42.650;23.386;2023-02-27T14:45:28;11.67;;;6.77;;
18789;SDS011;9523;42.650;23.386;2023-02-27T14:47:56;10.83;;;6.50;;
18789;SDS011;9523;42.650;23.386;2023-02-27T14:50:25;14.30;;;6.20;;
18789;SDS011;9523;42.650;23.386;2023-02-27T14:52:58;12.47;;;6.50;;
18789;SDS011;9523;42.650;23.386;2023-02-27T14:55:28;10.50;;;6.13;;
18789;SDS011;9523;42.650;23.386;2023-02-27T14:57:57;10.53;;;6.70;;
18789;SDS011;9523;42.650;23.386;2023-02-27T15:00:30;10.27;;;6.53;;
18789;SDS011;9523;42.650;23.386;2023-02-27T15:02:58;15.80;;;6.73;;
18789;SDS011;9523;42.650;23.386;2023-02-27T15:05:28;10.20;;;6.10;;
18789;SDS011;9523;42.650;23.386;2023-02-27T15:07:56;11.40;;;6.30;;
18789;SDS011;9523;42.650;23.386;2023-02-27T15:10:28;11.60;;;6.17;;
18789;SDS011;9523;42.650;23.386;2023-02-27T15:12:57;12.07;;;6.20;;
18789;SDS011;9523;42.650;23.386;2023-02-27T15:15:25;11.80;;;6.90;;
18789;SDS011;9523;42.650;23.386;2023-02-27T15:17:53;13.60;;;6.70;;
18789;SDS011;9523;42.650;23.386;2023-02-27T15:20:22;11.50;;;6.83;;
18789;SDS011;9523;42.650;23.386;2023-02-27T15:22:53;11.87;;;7.20;;
18789;SDS011;9523;42.650;23.386;2023-02-27T15:25:25;15.07;;;7.07;;
18789;SDS011;9523;42.650;23.386;2023-02-27T15:27:56;14.53;;;7.57;;
18789;SDS011;9523;42.650;23.386;2023-02-27T15:30:26;11.77;;;7.40;;
18789;SDS011;9523;42.650;23.386;2023-02-27T15:32:54;13.23;;;7.77;;
18789;SDS011;9523;42.650;23.386;2023-02-27T15:35:23;11.27;;;7.23;;
18789;SDS011;9523;42.650;23.386;2023-02-27T15:37:53;12.30;;;7.23;;